sensor_id;sensor_type;location;lat;lon;timestamp;P1;durP1;ratioP1;P2;durP2;ratioP2
59159;SDS011;44941;45.058;20.076;2024-03-23T00:53:24;21.88;;;13.93;;
59159;SDS011;44941;45.058;20.076;2024-03-23T00:55:50;22.02;;;13.73;;
59159;SDS011;44941;45.058;20.076;2024-03-23T00:58:16;24.73;;;14.13;;
59159;SDS011;44941;45.058;20.076;2024-03-23T01:00:42;20.65;;;13.82;;
59159;SDS011;44941;45.058;20.076;2024-03-23T01:03:08;22.85;;;14.00;;
59159;SDS011;44941;45.058;20.076;2024-03-23T01:05:34;26.63;;;15.25;;
59159;SDS011;44941;45.058;20.076;2024-03-23T01:08:00;29.50;;;15.65;;
59159;SDS011;44941;45.058;20.076;2024-03-23T01:10:27;27.15;;;16.45;;
59159;SDS011;44941;45.058;20.076;2024-03-23T01:12:53;31.83;;;16.77;;
59159;SDS011;44941;45.058;20.076;2024-03-23T01:15:19;34.40;;;18.85;;
59159;SDS011;44941;45.058;20.076;2024-03-23T01:17:45;29.55;;;17.70;;
59159;SDS011;44941;45.058;20.076;2024-03-23T01:20:11;28.45;;;18.42;;
59159;SDS011;44941;45.058;20.076;2024-03-23T01:22:37;27.30;;;18.52;;
59159;SDS011;44941;45.058;20.076;2024-03-23T01:25:03;31.90;;;19.15;;
59159;SDS011;44941;45.058;20.076;2024-03-23T01:27:29;30.27;;;18.83;;
59159;SDS011;44941;45.058;20.076;2024-03-23T01:29:55;34.55;;;19.58;;
59159;SDS011;44941;45.058;20.076;2024-03-23T01:32:22;34.53;;;20.58;;
59159;SDS011;44941;45.058;20.076;2024-03-23T01:34:48;32.97;;;21.70;;
59159;SDS011;44941;45.058;20.076;2024-03-23T01:37:14;38.03;;;22.45;;
59159;SDS011;44941;45.058;20.076;2024-03-23T01:39:40;36.13;;;22.27;;
59159;SDS011;44941;45.058;20.076;2024-03-23T01:42:06;42.50;;;23.38;;
59159;SDS011;44941;45.058;20.076;2024-03-23T01:44:32;42.13;;;23.88;;
59159;SDS011;44941;45.058;20.076;2024-03-23T01:46:58;38.35;;;22.88;;
59159;SDS011;44941;45.058;20.076;2024-03-23T01:49:24;37.55;;;24.00;;
59159;SDS011;44941;45.058;20.076;2024-03-23T01:51:50;37.28;;;24.52;;
59159;SDS011;44941;45.058;20.076;2024-03-23T01:54:16;42.72;;;24.83;;
59159;SDS011;44941;45.058;20.076;2024-03-23T01:56:42;41.42;;;23.55;;
59159;SDS011;44941;45.058;20.076;2024-03-23T01:59:08;38.03;;;24.30;;
59159;SDS011;44941;45.058;20.076;2024-03-23T02:01:35;40.30;;;24.35;;
59159;SDS011;44941;45.058;20.076;2024-03-23T02:04:01;38.92;;;24.75;;
59159;SDS011;44941;45.058;20.076;2024-03-23T02:06:28;37.50;;;24.80;;
59159;SDS011;44941;45.058;20.076;2024-03-23T02:08:54;38.28;;;24.35;;
59159;SDS011;44941;45.058;20.076;2024-03-23T02:11:20;36.13;;;24.73;;
59159;SDS011;44941;45.058;20.076;2024-03-23T02:13:46;34.28;;;24.23;;
59159;SDS011;44941;45.058;20.076;2024-03-23T02:16:12;35.55;;;24.08;;
59159;SDS011;44941;45.058;20.076;2024-03-23T02:18:39;35.97;;;22.45;;
59159;SDS011;44941;45.058;20.076;2024-03-23T02:21:05;37.80;;;24.25;;
59159;SDS011;44941;45.058;20.076;2024-03-23T02:23:31;39.10;;;24.80;;
59159;SDS011;44941;45.058;20.076;2024-03-23T02:25:57;38.88;;;24.52;;
59159;SDS011;44941;45.058;20.076;2024-03-23T02:28:23;39.13;;;25.98;;
59159;SDS011;44941;45.058;20.076;2024-03-23T02:30:49;44.92;;;27.55;;
59159;SDS011;44941;45.058;20.076;2024-03-23T02:33:15;45.35;;;26.70;;
59159;SDS011;44941;45.058;20.076;2024-03-23T02:35:42;44.00;;;28.25;;
59159;SDS011;44941;45.058;20.076;2024-03-23T02:38:09;46.08;;;26.95;;
59159;SDS011;44941;45.058;20.076;2024-03-23T02:40:35;42.50;;;26.23;;
59159;SDS011;44941;45.058;20.076;2024-03-23T02:43:04;40.20;;;26.88;;
59159;SDS011;44941;45.058;20.076;2024-03-23T02:45:30;47.03;;;27.58;;
59159;SDS011;44941;45.058;20.076;2024-03-23T02:47:56;44.92;;;27.48;;
59159;SDS011;44941;45.058;20.076;2024-03-23T02:50:22;49.05;;;26.40;;
59159;SDS011;44941;45.058;20.076;2024-03-23T02:52:49;43.28;;;27.67;;
59159;SDS011;44941;45.058;20.076;2024-03-23T02:55:15;46.38;;;27.55;;
59159;SDS011;44941;45.058;20.076;2024-03-23T02:57:41;49.30;;;29.10;;
59159;SDS011;44941;45.058;20.076;2024-03-23T03:00:07;51.83;;;28.70;;
59159;SDS011;44941;45.058;20.076;2024-03-23T03:02:34;53.28;;;29.02;;
59159;SDS011;44941;45.058;20.076;2024-03-23T03:05:00;49.15;;;28.20;;
59159;SDS011;44941;45.058;20.076;2024-03-23T03:07:26;47.30;;;28.50;;
59159;SDS011;44941;45.058;20.076;2024-03-23T03:09:52;51.65;;;29.00;;
59159;SDS011;44941;45.058;20.076;2024-03-23T03:12:18;44.42;;;28.27;;
59159;SDS011;44941;45.058;20.076;2024-03-23T03:14:44;53.92;;;29.02;;
59159;SDS011;44941;45.058;20.076;2024-03-23T03:17:10;46.00;;;28.40;;
59159;SDS011;44941;45.058;20.076;2024-03-23T03:19:37;49.38;;;29.00;;
59159;SDS011;44941;45.058;20.076;2024-03-23T03:22:03;50.13;;;30.17;;
59159;SDS011;44941;45.058;20.076;2024-03-23T03:24:29;54.95;;;31.00;;
59159;SDS011;44941;45.058;20.076;2024-03-23T03:26:55;53.13;;;30.52;;
59159;SDS011;44941;45.058;20.076;2024-03-23T03:29:23;52.47;;;30.73;;
59159;SDS011;44941;45.058;20.076;2024-03-23T03:31:49;57.88;;;31.35;;
59159;SDS011;44941;45.058;20.076;2024-03-23T03:34:16;55.28;;;31.50;;
59159;SDS011;44941;45.058;20.076;2024-03-23T03:36:42;63.60;;;31.02;;
59159;SDS011;44941;45.058;20.076;2024-03-23T03:39:08;56.88;;;28.60;;
59159;SDS011;44941;45.058;20.076;2024-03-23T03:41:35;49.25;;;29.42;;
59159;SDS011;44941;45.058;20.076;2024-03-23T03:44:01;46.47;;;29.20;;
59159;SDS011;44941;45.058;20.076;2024-03-23T03:46:30;52.53;;;30.45;;
59159;SDS011;44941;45.058;20.076;2024-03-23T03:48:56;58.92;;;31.85;;
59159;SDS011;44941;45.058;20.076;2024-03-23T03:51:22;49.80;;;30.45;;
59159;SDS011;44941;45.058;20.076;2024-03-23T03:53:48;57.47;;;30.60;;
59159;SDS011;44941;45.058;20.076;2024-03-23T03:56:14;53.08;;;31.92;;
59159;SDS011;44941;45.058;20.076;2024-03-23T03:58:40;58.55;;;31.33;;
59159;SDS011;44941;45.058;20.076;2024-03-23T04:01:06;58.70;;;31.27;;
59159;SDS011;44941;45.058;20.076;2024-03-23T04:03:32;53.72;;;31.40;;
59159;SDS011;44941;45.058;20.076;2024-03-23T04:05:58;60.05;;;30.85;;
59159;SDS011;44941;45.058;20.076;2024-03-23T04:08:24;49.60;;;30.85;;
59159;SDS011;44941;45.058;20.076;2024-03-23T04:10:50;54.72;;;31.02;;
59159;SDS011;44941;45.058;20.076;2024-03-23T04:13:17;53.90;;;30.75;;
59159;SDS011;44941;45.058;20.076;2024-03-23T04:15:44;59.38;;;30.88;;
59159;SDS011;44941;45.058;20.076;2024-03-23T04:18:10;53.35;;;31.02;;
59159;SDS011;44941;45.058;20.076;2024-03-23T04:20:36;53.47;;;32.83;;
59159;SDS011;44941;45.058;20.076;2024-03-23T04:23:02;52.97;;;30.80;;
59159;SDS011;44941;45.058;20.076;2024-03-23T04:25:28;55.50;;;29.45;;
59159;SDS011;44941;45.058;20.076;2024-03-23T04:27:54;47.78;;;28.13;;
59159;SDS011;44941;45.058;20.076;2024-03-23T04:30:20;47.15;;;27.98;;
59159;SDS011;44941;45.058;20.076;2024-03-23T04:32:48;48.75;;;29.02;;
59159;SDS011;44941;45.058;20.076;2024-03-23T04:35:14;51.60;;;29.27;;
59159;SDS011;44941;45.058;20.076;2024-03-23T04:37:40;50.20;;;27.80;;
59159;SDS011;44941;45.058;20.076;2024-03-23T04:40:07;56.78;;;29.17;;
59159;SDS011;44941;45.058;20.076;2024-03-23T04:42:33;51.88;;;30.60;;
59159;SDS011;44941;45.058;20.076;2024-03-23T04:44:59;54.22;;;30.92;;
59159;SDS011;44941;45.058;20.076;2024-03-23T04:47:25;53.17;;;29.65;;
59159;SDS011;44941;45.058;20.076;2024-03-23T04:49:51;48.92;;;28.83;;
59159;SDS011;44941;45.058;20.076;2024-03-23T04:52:18;51.38;;;30.40;;
59159;SDS011;44941;45.058;20.076;2024-03-23T04:54:44;52.17;;;28.65;;
59159;SDS011;44941;45.058;20.076;2024-03-23T04:57:10;48.00;;;27.63;;
59159;SDS011;44941;45.058;20.076;2024-03-23T04:59:36;50.83;;;27.80;;
59159;SDS011;44941;45.058;20.076;2024-03-23T05:02:02;56.17;;;29.67;;
59159;SDS011;44941;45.058;20.076;2024-03-23T05:04:28;49.28;;;28.48;;
59159;SDS011;44941;45.058;20.076;2024-03-23T05:06:55;50.65;;;29.15;;
59159;SDS011;44941;45.058;20.076;2024-03-23T05:09:33;51.78;;;29.20;;
59159;SDS011;44941;45.058;20.076;2024-03-23T05:11:59;46.38;;;28.80;;
59159;SDS011;44941;45.058;20.076;2024-03-23T05:14:26;48.05;;;29.15;;
59159;SDS011;44941;45.058;20.076;2024-03-23T05:16:52;51.45;;;28.27;;
59159;SDS011;44941;45.058;20.076;2024-03-23T05:19:18;53.03;;;30.15;;
59159;SDS011;44941;45.058;20.076;2024-03-23T05:21:44;51.20;;;28.95;;
59159;SDS011;44941;45.058;20.076;2024-03-23T05:24:11;52.97;;;29.77;;
59159;SDS011;44941;45.058;20.076;2024-03-23T05:26:37;51.85;;;31.13;;
59159;SDS011;44941;45.058;20.076;2024-03-23T05:29:03;49.60;;;31.30;;
59159;SDS011;44941;45.058;20.076;2024-03-23T05:31:30;51.20;;;31.35;;
59159;SDS011;44941;45.058;20.076;2024-03-23T05:33:56;51.42;;;31.95;;
59159;SDS011;44941;45.058;20.076;2024-03-23T05:36:22;50.63;;;30.65;;
59159;SDS011;44941;45.058;20.076;2024-03-23T05:38:51;48.00;;;29.77;;
59159;SDS011;44941;45.058;20.076;2024-03-23T05:41:17;49.28;;;28.30;;
59159;SDS011;44941;45.058;20.076;2024-03-23T05:43:43;47.33;;;28.25;;
59159;SDS011;44941;45.058;20.076;2024-03-23T05:46:09;48.08;;;26.27;;
59159;SDS011;44941;45.058;20.076;2024-03-23T05:48:36;45.35;;;24.75;;
59159;SDS011;44941;45.058;20.076;2024-03-23T05:51:02;48.17;;;26.65;;
59159;SDS011;44941;45.058;20.076;2024-03-23T05:53:28;53.53;;;27.15;;
59159;SDS011;44941;45.058;20.076;2024-03-23T05:56:01;52.05;;;25.92;;
59159;SDS011;44941;45.058;20.076;2024-03-23T05:58:31;44.22;;;26.25;;
59159;SDS011;44941;45.058;20.076;2024-03-23T06:00:58;44.25;;;25.55;;
59159;SDS011;44941;45.058;20.076;2024-03-23T06:03:25;45.97;;;25.60;;
59159;SDS011;44941;45.058;20.076;2024-03-23T06:05:51;42.90;;;24.83;;
59159;SDS011;44941;45.058;20.076;2024-03-23T06:08:20;40.38;;;23.13;;
59159;SDS011;44941;45.058;20.076;2024-03-23T06:10:46;40.03;;;23.67;;
59159;SDS011;44941;45.058;20.076;2024-03-23T06:13:12;45.67;;;22.58;;
59159;SDS011;44941;45.058;20.076;2024-03-23T06:15:39;44.08;;;24.63;;
59159;SDS011;44941;45.058;20.076;2024-03-23T06:18:05;41.45;;;22.23;;
59159;SDS011;44941;45.058;20.076;2024-03-23T06:20:33;38.67;;;21.27;;
59159;SDS011;44941;45.058;20.076;2024-03-23T06:23:00;32.40;;;20.10;;
59159;SDS011;44941;45.058;20.076;2024-03-23T06:25:29;35.10;;;19.80;;
59159;SDS011;44941;45.058;20.076;2024-03-23T06:27:55;40.38;;;19.23;;
59159;SDS011;44941;45.058;20.076;2024-03-23T06:30:23;33.03;;;19.92;;
59159;SDS011;44941;45.058;20.076;2024-03-23T06:32:49;37.35;;;20.00;;
59159;SDS011;44941;45.058;20.076;2024-03-23T06:35:15;39.63;;;19.73;;
59159;SDS011;44941;45.058;20.076;2024-03-23T06:37:41;36.58;;;21.17;;
59159;SDS011;44941;45.058;20.076;2024-03-23T06:40:07;35.05;;;19.88;;
59159;SDS011;44941;45.058;20.076;2024-03-23T06:42:35;36.80;;;19.10;;
59159;SDS011;44941;45.058;20.076;2024-03-23T06:45:01;37.90;;;21.05;;
59159;SDS011;44941;45.058;20.076;2024-03-23T06:49:55;31.15;;;19.30;;
59159;SDS011;44941;45.058;20.076;2024-03-23T06:52:21;32.30;;;20.17;;
59159;SDS011;44941;45.058;20.076;2024-03-23T06:57:51;35.50;;;21.00;;
59159;SDS011;44941;45.058;20.076;2024-03-23T07:00:17;35.28;;;21.77;;
59159;SDS011;44941;45.058;20.076;2024-03-23T07:02:43;35.63;;;20.63;;
59159;SDS011;44941;45.058;20.076;2024-03-23T07:05:10;36.33;;;21.13;;
59159;SDS011;44941;45.058;20.076;2024-03-23T07:07:37;35.58;;;20.27;;
59159;SDS011;44941;45.058;20.076;2024-03-23T07:10:04;36.42;;;21.52;;
59159;SDS011;44941;45.058;20.076;2024-03-23T07:12:31;40.58;;;22.55;;
59159;SDS011;44941;45.058;20.076;2024-03-23T07:14:57;35.10;;;21.80;;
59159;SDS011;44941;45.058;20.076;2024-03-23T07:17:23;33.05;;;20.38;;
59159;SDS011;44941;45.058;20.076;2024-03-23T07:19:49;33.88;;;20.58;;
59159;SDS011;44941;45.058;20.076;2024-03-23T07:22:15;37.53;;;21.13;;
59159;SDS011;44941;45.058;20.076;2024-03-23T07:24:41;30.42;;;18.95;;
59159;SDS011;44941;45.058;20.076;2024-03-23T07:30:12;35.13;;;19.65;;
59159;SDS011;44941;45.058;20.076;2024-03-23T07:32:38;39.58;;;22.10;;
59159;SDS011;44941;45.058;20.076;2024-03-23T07:35:04;42.97;;;22.67;;
59159;SDS011;44941;45.058;20.076;2024-03-23T07:37:30;37.42;;;21.35;;
59159;SDS011;44941;45.058;20.076;2024-03-23T07:43:00;32.13;;;20.35;;
59159;SDS011;44941;45.058;20.076;2024-03-23T07:45:26;31.83;;;19.70;;
59159;SDS011;44941;45.058;20.076;2024-03-23T07:47:52;32.15;;;19.73;;
59159;SDS011;44941;45.058;20.076;2024-03-23T07:50:18;34.42;;;20.55;;
59159;SDS011;44941;45.058;20.076;2024-03-23T07:52:44;30.50;;;19.55;;
59159;SDS011;44941;45.058;20.076;2024-03-23T08:01:15;34.72;;;17.10;;
59159;SDS011;44941;45.058;20.076;2024-03-23T08:03:42;33.63;;;18.33;;
59159;SDS011;44941;45.058;20.076;2024-03-23T08:06:18;30.13;;;18.42;;
59159;SDS011;44941;45.058;20.076;2024-03-23T08:08:45;31.83;;;17.42;;
59159;SDS011;44941;45.058;20.076;2024-03-23T08:14:30;40.38;;;25.83;;
59159;SDS011;44941;45.058;20.076;2024-03-23T08:16:57;29.92;;;18.75;;
59159;SDS011;44941;45.058;20.076;2024-03-23T08:19:23;24.80;;;15.07;;
59159;SDS011;44941;45.058;20.076;2024-03-23T08:21:49;24.60;;;14.48;;
59159;SDS011;44941;45.058;20.076;2024-03-23T08:24:16;27.30;;;14.55;;
59159;SDS011;44941;45.058;20.076;2024-03-23T08:26:48;26.08;;;13.85;;
59159;SDS011;44941;45.058;20.076;2024-03-23T08:29:14;23.58;;;12.73;;
59159;SDS011;44941;45.058;20.076;2024-03-23T08:31:40;26.15;;;13.68;;
59159;SDS011;44941;45.058;20.076;2024-03-23T08:34:06;22.20;;;14.18;;
59159;SDS011;44941;45.058;20.076;2024-03-23T08:36:32;23.30;;;14.32;;
59159;SDS011;44941;45.058;20.076;2024-03-23T08:38:58;24.52;;;13.82;;
59159;SDS011;44941;45.058;20.076;2024-03-23T08:44:43;21.23;;;12.77;;
59159;SDS011;44941;45.058;20.076;2024-03-23T08:47:11;23.27;;;12.02;;
59159;SDS011;44941;45.058;20.076;2024-03-23T08:49:41;22.27;;;11.52;;
59159;SDS011;44941;45.058;20.076;2024-03-23T08:52:07;22.23;;;12.68;;
59159;SDS011;44941;45.058;20.076;2024-03-23T08:54:33;18.75;;;12.77;;
59159;SDS011;44941;45.058;20.076;2024-03-23T08:57:00;18.85;;;10.90;;
59159;SDS011;44941;45.058;20.076;2024-03-23T08:59:26;16.83;;;10.98;;
59159;SDS011;44941;45.058;20.076;2024-03-23T09:01:52;18.40;;;10.15;;
59159;SDS011;44941;45.058;20.076;2024-03-23T09:04:19;16.00;;;8.80;;
59159;SDS011;44941;45.058;20.076;2024-03-23T09:06:45;17.40;;;9.27;;
59159;SDS011;44941;45.058;20.076;2024-03-23T09:09:11;19.25;;;8.52;;
59159;SDS011;44941;45.058;20.076;2024-03-23T09:11:52;16.45;;;9.13;;
59159;SDS011;44941;45.058;20.076;2024-03-23T09:14:18;19.98;;;10.02;;
59159;SDS011;44941;45.058;20.076;2024-03-23T09:16:44;13.48;;;8.13;;
59159;SDS011;44941;45.058;20.076;2024-03-23T09:19:10;16.45;;;9.02;;
59159;SDS011;44941;45.058;20.076;2024-03-23T09:21:36;16.27;;;8.98;;
59159;SDS011;44941;45.058;20.076;2024-03-23T09:24:02;17.17;;;8.50;;
59159;SDS011;44941;45.058;20.076;2024-03-23T09:26:30;17.30;;;9.70;;
59159;SDS011;44941;45.058;20.076;2024-03-23T09:28:57;22.27;;;10.15;;
59159;SDS011;44941;45.058;20.076;2024-03-23T09:31:23;17.52;;;8.80;;
59159;SDS011;44941;45.058;20.076;2024-03-23T09:33:49;14.52;;;9.02;;
59159;SDS011;44941;45.058;20.076;2024-03-23T09:36:15;14.52;;;9.27;;
59159;SDS011;44941;45.058;20.076;2024-03-23T09:38:41;24.38;;;13.02;;
59159;SDS011;44941;45.058;20.076;2024-03-23T09:41:10;18.60;;;10.70;;
59159;SDS011;44941;45.058;20.076;2024-03-23T09:43:37;18.33;;;8.60;;
59159;SDS011;44941;45.058;20.076;2024-03-23T09:46:03;16.45;;;7.43;;
59159;SDS011;44941;45.058;20.076;2024-03-23T09:48:30;13.35;;;6.93;;
59159;SDS011;44941;45.058;20.076;2024-03-23T09:50:56;10.57;;;6.57;;
59159;SDS011;44941;45.058;20.076;2024-03-23T09:53:23;17.25;;;6.93;;
59159;SDS011;44941;45.058;20.076;2024-03-23T09:58:59;12.48;;;5.80;;
59159;SDS011;44941;45.058;20.076;2024-03-23T10:01:25;11.50;;;6.05;;
59159;SDS011;44941;45.058;20.076;2024-03-23T10:03:52;14.20;;;6.10;;
59159;SDS011;44941;45.058;20.076;2024-03-23T10:06:21;10.82;;;5.05;;
59159;SDS011;44941;45.058;20.076;2024-03-23T10:08:49;8.70;;;5.30;;
59159;SDS011;44941;45.058;20.076;2024-03-23T10:14:28;11.07;;;4.60;;
59159;SDS011;44941;45.058;20.076;2024-03-23T10:16:59;8.25;;;4.97;;
59159;SDS011;44941;45.058;20.076;2024-03-23T10:19:38;10.23;;;4.55;;
59159;SDS011;44941;45.058;20.076;2024-03-23T10:22:04;8.63;;;4.07;;
59159;SDS011;44941;45.058;20.076;2024-03-23T10:24:30;7.07;;;3.65;;
59159;SDS011;44941;45.058;20.076;2024-03-23T10:26:56;7.88;;;4.30;;
59159;SDS011;44941;45.058;20.076;2024-03-23T10:29:22;7.60;;;4.30;;
59159;SDS011;44941;45.058;20.076;2024-03-23T10:31:51;7.00;;;4.32;;
59159;SDS011;44941;45.058;20.076;2024-03-23T10:34:17;11.00;;;4.43;;
59159;SDS011;44941;45.058;20.076;2024-03-23T10:36:51;5.82;;;3.47;;
59159;SDS011;44941;45.058;20.076;2024-03-23T10:39:18;10.93;;;4.30;;
59159;SDS011;44941;45.058;20.076;2024-03-23T10:41:46;12.23;;;6.65;;
59159;SDS011;44941;45.058;20.076;2024-03-23T10:44:15;11.20;;;5.15;;
59159;SDS011;44941;45.058;20.076;2024-03-23T10:46:43;7.97;;;3.78;;
59159;SDS011;44941;45.058;20.076;2024-03-23T10:49:09;11.70;;;5.65;;
59159;SDS011;44941;45.058;20.076;2024-03-23T10:51:36;8.50;;;4.78;;
59159;SDS011;44941;45.058;20.076;2024-03-23T10:54:04;10.37;;;3.80;;
59159;SDS011;44941;45.058;20.076;2024-03-23T10:56:32;8.02;;;3.72;;
59159;SDS011;44941;45.058;20.076;2024-03-23T10:59:00;7.80;;;3.40;;
59159;SDS011;44941;45.058;20.076;2024-03-23T11:01:28;8.18;;;3.47;;
59159;SDS011;44941;45.058;20.076;2024-03-23T11:03:54;7.55;;;4.40;;
59159;SDS011;44941;45.058;20.076;2024-03-23T11:06:38;8.98;;;3.42;;
59159;SDS011;44941;45.058;20.076;2024-03-23T11:09:38;6.95;;;3.50;;
59159;SDS011;44941;45.058;20.076;2024-03-23T11:14:45;6.45;;;2.90;;
59159;SDS011;44941;45.058;20.076;2024-03-23T11:17:11;11.98;;;3.10;;
59159;SDS011;44941;45.058;20.076;2024-03-23T11:19:38;10.35;;;3.17;;
59159;SDS011;44941;45.058;20.076;2024-03-23T11:22:04;8.15;;;3.40;;
59159;SDS011;44941;45.058;20.076;2024-03-23T11:24:31;9.18;;;2.92;;
59159;SDS011;44941;45.058;20.076;2024-03-23T11:26:57;7.18;;;2.58;;
59159;SDS011;44941;45.058;20.076;2024-03-23T11:29:29;10.00;;;2.40;;
59159;SDS011;44941;45.058;20.076;2024-03-23T11:31:56;6.00;;;2.50;;
59159;SDS011;44941;45.058;20.076;2024-03-23T11:34:22;7.15;;;2.60;;
59159;SDS011;44941;45.058;20.076;2024-03-23T11:36:48;9.73;;;3.13;;
59159;SDS011;44941;45.058;20.076;2024-03-23T11:39:18;8.50;;;3.03;;
59159;SDS011;44941;45.058;20.076;2024-03-23T11:41:48;5.53;;;2.60;;
59159;SDS011;44941;45.058;20.076;2024-03-23T11:44:21;6.57;;;2.80;;
59159;SDS011;44941;45.058;20.076;2024-03-23T11:46:48;7.05;;;2.70;;
59159;SDS011;44941;45.058;20.076;2024-03-23T11:49:32;9.38;;;3.00;;
59159;SDS011;44941;45.058;20.076;2024-03-23T11:51:58;5.95;;;3.08;;
59159;SDS011;44941;45.058;20.076;2024-03-23T11:54:26;9.55;;;3.28;;
59159;SDS011;44941;45.058;20.076;2024-03-23T11:56:59;5.82;;;2.90;;
59159;SDS011;44941;45.058;20.076;2024-03-23T12:02:00;5.28;;;2.70;;
59159;SDS011;44941;45.058;20.076;2024-03-23T12:04:27;9.35;;;3.40;;
59159;SDS011;44941;45.058;20.076;2024-03-23T12:10:04;5.40;;;2.35;;
59159;SDS011;44941;45.058;20.076;2024-03-23T12:12:35;6.78;;;2.38;;
59159;SDS011;44941;45.058;20.076;2024-03-23T12:15:02;8.05;;;3.03;;
59159;SDS011;44941;45.058;20.076;2024-03-23T12:17:28;8.80;;;4.50;;
59159;SDS011;44941;45.058;20.076;2024-03-23T12:19:54;6.70;;;3.28;;
59159;SDS011;44941;45.058;20.076;2024-03-23T12:22:20;6.75;;;2.47;;
59159;SDS011;44941;45.058;20.076;2024-03-23T12:24:47;7.75;;;2.00;;
59159;SDS011;44941;45.058;20.076;2024-03-23T12:27:13;7.72;;;2.00;;
59159;SDS011;44941;45.058;20.076;2024-03-23T12:29:40;9.55;;;2.22;;
59159;SDS011;44941;45.058;20.076;2024-03-23T12:32:11;4.32;;;2.03;;
59159;SDS011;44941;45.058;20.076;2024-03-23T12:34:37;6.63;;;2.28;;
59159;SDS011;44941;45.058;20.076;2024-03-23T12:37:03;7.82;;;2.20;;
59159;SDS011;44941;45.058;20.076;2024-03-23T12:39:31;4.53;;;2.17;;
59159;SDS011;44941;45.058;20.076;2024-03-23T12:41:57;4.68;;;1.92;;
59159;SDS011;44941;45.058;20.076;2024-03-23T12:44:23;6.20;;;2.10;;
59159;SDS011;44941;45.058;20.076;2024-03-23T12:46:49;19.02;;;7.88;;
59159;SDS011;44941;45.058;20.076;2024-03-23T12:49:15;6.20;;;2.80;;
59159;SDS011;44941;45.058;20.076;2024-03-23T12:51:46;6.30;;;2.40;;
59159;SDS011;44941;45.058;20.076;2024-03-23T12:54:13;9.40;;;3.03;;
59159;SDS011;44941;45.058;20.076;2024-03-23T13:02:41;13.48;;;7.00;;
59159;SDS011;44941;45.058;20.076;2024-03-23T13:05:08;7.53;;;2.67;;
59159;SDS011;44941;45.058;20.076;2024-03-23T13:07:34;6.70;;;2.53;;
59159;SDS011;44941;45.058;20.076;2024-03-23T13:10:00;5.70;;;2.78;;
59159;SDS011;44941;45.058;20.076;2024-03-23T13:12:28;7.57;;;2.65;;
59159;SDS011;44941;45.058;20.076;2024-03-23T13:14:54;8.00;;;2.28;;
59159;SDS011;44941;45.058;20.076;2024-03-23T13:17:20;6.32;;;2.95;;
59159;SDS011;44941;45.058;20.076;2024-03-23T13:19:46;9.52;;;2.60;;
59159;SDS011;44941;45.058;20.076;2024-03-23T13:22:12;10.98;;;3.10;;
59159;SDS011;44941;45.058;20.076;2024-03-23T13:24:39;6.13;;;2.60;;
59159;SDS011;44941;45.058;20.076;2024-03-23T13:27:06;6.90;;;2.55;;
59159;SDS011;44941;45.058;20.076;2024-03-23T13:29:33;5.38;;;2.60;;
59159;SDS011;44941;45.058;20.076;2024-03-23T13:32:05;5.15;;;2.42;;
59159;SDS011;44941;45.058;20.076;2024-03-23T13:34:31;7.20;;;2.33;;
59159;SDS011;44941;45.058;20.076;2024-03-23T13:36:59;8.75;;;3.17;;
59159;SDS011;44941;45.058;20.076;2024-03-23T13:39:26;7.88;;;2.30;;
59159;SDS011;44941;45.058;20.076;2024-03-23T13:42:04;6.65;;;2.40;;
59159;SDS011;44941;45.058;20.076;2024-03-23T13:44:30;6.95;;;2.25;;
59159;SDS011;44941;45.058;20.076;2024-03-23T13:46:56;8.13;;;2.70;;
59159;SDS011;44941;45.058;20.076;2024-03-23T13:49:26;6.93;;;2.90;;
59159;SDS011;44941;45.058;20.076;2024-03-23T13:51:54;8.77;;;2.70;;
59159;SDS011;44941;45.058;20.076;2024-03-23T13:54:20;8.70;;;2.38;;
59159;SDS011;44941;45.058;20.076;2024-03-23T13:56:54;5.47;;;2.35;;
59159;SDS011;44941;45.058;20.076;2024-03-23T13:59:20;6.57;;;2.47;;
59159;SDS011;44941;45.058;20.076;2024-03-23T14:01:48;6.03;;;2.83;;
59159;SDS011;44941;45.058;20.076;2024-03-23T14:04:14;12.20;;;3.00;;
59159;SDS011;44941;45.058;20.076;2024-03-23T14:06:50;6.07;;;2.78;;
59159;SDS011;44941;45.058;20.076;2024-03-23T14:09:16;7.65;;;3.33;;
59159;SDS011;44941;45.058;20.076;2024-03-23T14:11:46;8.10;;;2.38;;
59159;SDS011;44941;45.058;20.076;2024-03-23T14:14:12;6.35;;;2.70;;
59159;SDS011;44941;45.058;20.076;2024-03-23T14:16:41;8.32;;;2.70;;
59159;SDS011;44941;45.058;20.076;2024-03-23T14:19:07;6.75;;;2.58;;
59159;SDS011;44941;45.058;20.076;2024-03-23T14:21:38;7.60;;;2.60;;
59159;SDS011;44941;45.058;20.076;2024-03-23T14:24:04;6.00;;;2.72;;
59159;SDS011;44941;45.058;20.076;2024-03-23T14:26:33;7.40;;;2.30;;
59159;SDS011;44941;45.058;20.076;2024-03-23T14:32:04;8.07;;;2.53;;
59159;SDS011;44941;45.058;20.076;2024-03-23T14:34:36;7.65;;;2.50;;
59159;SDS011;44941;45.058;20.076;2024-03-23T14:37:20;5.47;;;2.60;;
59159;SDS011;44941;45.058;20.076;2024-03-23T14:39:46;14.45;;;2.58;;
59159;SDS011;44941;45.058;20.076;2024-03-23T14:48:06;6.63;;;2.85;;
59159;SDS011;44941;45.058;20.076;2024-03-23T14:50:32;9.45;;;3.30;;
59159;SDS011;44941;45.058;20.076;2024-03-23T14:52:59;9.38;;;3.42;;
59159;SDS011;44941;45.058;20.076;2024-03-23T14:55:25;5.85;;;2.63;;
59159;SDS011;44941;45.058;20.076;2024-03-23T14:57:52;8.55;;;2.75;;
59159;SDS011;44941;45.058;20.076;2024-03-23T15:00:18;7.93;;;3.13;;
59159;SDS011;44941;45.058;20.076;2024-03-23T15:02:44;13.80;;;3.15;;
59159;SDS011;44941;45.058;20.076;2024-03-23T15:05:10;7.60;;;2.80;;
59159;SDS011;44941;45.058;20.076;2024-03-23T15:07:36;8.95;;;3.38;;
59159;SDS011;44941;45.058;20.076;2024-03-23T15:10:03;16.02;;;6.75;;
59159;SDS011;44941;45.058;20.076;2024-03-23T15:12:35;7.00;;;3.40;;
59159;SDS011;44941;45.058;20.076;2024-03-23T15:15:01;10.68;;;3.78;;
59159;SDS011;44941;45.058;20.076;2024-03-23T15:17:27;9.65;;;3.60;;
59159;SDS011;44941;45.058;20.076;2024-03-23T15:19:53;14.93;;;6.00;;
59159;SDS011;44941;45.058;20.076;2024-03-23T15:22:19;12.43;;;5.07;;
59159;SDS011;44941;45.058;20.076;2024-03-23T15:24:46;5.28;;;2.80;;
59159;SDS011;44941;45.058;20.076;2024-03-23T15:27:13;7.00;;;3.03;;
59159;SDS011;44941;45.058;20.076;2024-03-23T15:29:39;8.73;;;3.60;;
59159;SDS011;44941;45.058;20.076;2024-03-23T15:32:07;7.88;;;2.95;;
59159;SDS011;44941;45.058;20.076;2024-03-23T15:34:33;10.25;;;2.92;;
59159;SDS011;44941;45.058;20.076;2024-03-23T15:36:59;9.40;;;3.95;;
59159;SDS011;44941;45.058;20.076;2024-03-23T15:39:25;10.43;;;3.72;;
59159;SDS011;44941;45.058;20.076;2024-03-23T15:41:51;5.88;;;3.08;;
59159;SDS011;44941;45.058;20.076;2024-03-23T15:47:23;11.93;;;7.60;;
59159;SDS011;44941;45.058;20.076;2024-03-23T15:49:49;52.80;;;32.75;;
59159;SDS011;44941;45.058;20.076;2024-03-23T15:52:18;67.30;;;48.67;;
59159;SDS011;44941;45.058;20.076;2024-03-23T15:54:44;130.18;;;83.57;;
59159;SDS011;44941;45.058;20.076;2024-03-23T15:57:10;38.45;;;23.02;;
59159;SDS011;44941;45.058;20.076;2024-03-23T15:59:38;19.25;;;10.45;;
59159;SDS011;44941;45.058;20.076;2024-03-23T16:02:05;15.07;;;6.93;;
59159;SDS011;44941;45.058;20.076;2024-03-23T16:04:32;21.35;;;6.40;;
59159;SDS011;44941;45.058;20.076;2024-03-23T16:06:58;13.13;;;4.93;;